Time;durP1;ratioP1;P1;durP2;ratioP2;P2;SDS_P1;SDS_P2;PMS_P1;PMS_P2;Temp;Humidity;BMP_temperature;BMP_pressure;BME280_temperature;BME280_humidity;BME280_pressure;Samples;Min_cycle;Max_cycle;Signal;HPM_P1;HPM_P2
2023/07/06 00:00:40;;;;;;;;;8.50;8.50;;;;;31.71;29.66;100824.72;5039088;28;45436;-72
2023/07/06 00:03:06;;;;;;;;;8.25;8.25;;;;;31.75;29.71;100824.19;5020029;28;48143;-67
2023/07/06 00:05:31;;;;;;;;;10.00;9.50;;;;;31.63;29.81;100825.72;5037580;28;45312;-68
2023/07/06 00:07:57;;;;;;;;;8.00;8.00;;;;;31.67;30.08;100823.44;5038231;28;45437;-69
2023/07/06 00:10:23;;;;;;;;;11.75;11.75;;;;;31.66;30.26;100827.19;5038663;28;45415;-70
2023/07/06 00:12:48;;;;;;;;;8.25;8.25;;;;;31.55;30.50;100821.25;5037648;28;46111;-67
2023/07/06 00:15:14;;;;;;;;;9.50;9.50;;;;;31.51;30.23;100825.41;5037682;28;45471;-70
2023/07/06 00:17:39;;;;;;;;;8.00;8.00;;;;;31.49;30.61;100830.19;5037991;28;45458;-71
2023/07/06 00:20:10;;;;;;;;;9.00;9.00;;;;;31.50;30.72;100826.44;5039154;28;45377;-68
2023/07/06 00:22:36;;;;;;;;;9.25;9.25;;;;;31.17;30.43;100783.44;5037194;28;46142;-70
2023/07/06 00:25:03;;;;;;;;;10.25;10.25;;;;;31.48;31.02;100826.63;5018932;28;45564;-70
2023/07/06 00:27:29;;;;;;;;;10.50;10.00;;;;;31.23;30.29;100785.41;5020576;28;45292;-68
2023/07/06 00:30:15;;;;;;;;;10.25;10.25;;;;;31.50;30.60;100829.16;5042684;28;45284;-69
2023/07/06 00:32:42;;;;;;;;;10.25;10.25;;;;;31.45;30.03;100826.16;5039500;28;45652;-72
2023/07/06 00:35:10;;;;;;;;;12.75;11.50;;;;;31.37;30.62;100824.44;5039184;28;45301;-71
2023/07/06 00:37:37;;;;;;;;;9.75;9.75;;;;;31.20;30.51;100804.81;5039169;28;45284;-68
2023/07/06 00:40:08;;;;;;;;;12.00;12.00;;;;;31.28;30.68;100825.56;5037547;28;45614;-71
2023/07/06 00:42:34;;;;;;;;;9.00;9.00;;;;;31.37;31.28;100835.31;5036809;28;45473;-67
2023/07/06 00:45:01;;;;;;;;;13.00;13.00;;;;;31.37;31.01;100840.75;5019739;28;45410;-70
2023/07/06 00:47:34;;;;;;;;;6.25;6.25;;;;;31.41;30.65;100838.47;5020944;28;45424;-67
2023/07/06 00:50:07;;;;;;;;;10.75;10.75;;;;;31.23;30.98;100833.47;5037442;28;45436;-69
2023/07/06 00:52:36;;;;;;;;;9.25;9.25;;;;;31.31;30.92;100842.34;5037175;28;46845;-72
2023/07/06 00:55:03;;;;;;;;;9.00;9.00;;;;;30.71;31.45;100826.16;5039601;28;45403;-75
2023/07/06 00:57:32;;;;;;;;;9.00;8.75;;;;;30.74;31.62;100841.22;5039406;28;45760;-68
2023/07/06 00:59:58;;;;;;;;;9.25;8.25;;;;;30.61;31.55;100831.03;5048954;28;45328;-72
2023/07/06 01:02:27;;;;;;;;;8.75;8.75;;;;;30.61;31.89;100847.31;5025126;28;45964;-74
2023/07/06 01:04:53;;;;;;;;;10.25;9.25;;;;;30.17;31.86;100790.13;5023238;28;45299;-75
2023/07/06 01:07:25;;;;;;;;;7.25;7.25;;;;;30.58;32.00;100843.09;5039196;28;45387;-72
2023/07/06 01:09:52;;;;;;;;;7.50;7.50;;;;;30.50;31.72;100858.63;5038686;28;45426;-77
2023/07/06 01:12:18;;;;;;;;;4.00;4.00;;;;;30.51;31.88;100849.44;5038472;28;46562;-68
2023/07/06 01:14:45;;;;;;;;;8.75;8.75;;;;;30.49;31.99;100855.06;5037285;28;45405;-70
2023/07/06 01:17:18;;;;;;;;;8.75;8.75;;;;;30.46;31.73;100842.69;5038379;28;45444;-72
2023/07/06 01:19:58;;;;;;;;;8.00;8.00;;;;;30.49;32.02;100855.06;5039457;28;45220;-72
2023/07/06 01:22:48;;;;;;;;;6.75;6.75;;;;;30.42;31.75;100848.72;5019354;28;47444;-76
2023/07/06 01:25:37;;;;;;;;;8.50;8.50;;;;;30.19;32.15;100825.19;5043529;28;45598;-69
2023/07/06 01:28:05;;;;;;;;;8.25;8.25;;;;;30.19;32.25;100849.59;5040262;28;45442;-72
2023/07/06 01:30:52;;;;;;;;;8.50;8.50;;;;;30.20;32.47;100850.47;5037465;28;45399;-69
2023/07/06 01:33:26;;;;;;;;;7.25;7.25;;;;;30.10;32.43;100846.16;5041431;28;45250;-73
2023/07/06 01:36:05;;;;;;;;;8.25;8.25;;;;;30.07;32.25;100840.22;5021387;28;45469;-69
2023/07/06 01:38:30;;;;;;;;;5.00;5.00;;;;;29.98;32.24;100828.59;5039786;28;45173;-67
2023/07/06 01:40:57;;;;;;;;;8.00;8.00;;;;;30.03;32.48;100831.63;5022284;28;45228;-66
2023/07/06 01:43:25;;;;;;;;;9.50;9.50;;;;;30.08;32.25;100836.50;5021593;28;48052;-68
2023/07/06 01:45:52;;;;;;;;;10.25;9.25;;;;;29.98;32.64;100821.28;5039766;28;45417;-71
2023/07/06 01:48:18;;;;;;;;;8.50;8.50;;;;;30.03;32.06;100834.34;5040143;28;45297;-71
2023/07/06 01:50:49;;;;;;;;;9.25;9.25;;;;;30.07;32.51;100838.38;5041946;28;45614;-72
2023/07/06 01:53:31;;;;;;;;;8.00;8.00;;;;;30.06;32.49;100839.41;5040337;28;45431;-72
2023/07/06 01:56:04;;;;;;;;;7.50;7.50;;;;;29.99;32.89;100833.00;5039453;28;45234;-71
2023/07/06 01:58:51;;;;;;;;;9.00;9.00;;;;;29.96;33.04;100830.66;5039990;28;45249;-73
2023/07/06 02:01:23;;;;;;;;;9.25;9.25;;;;;29.90;33.07;100831.41;5043988;28;45329;-70
2023/07/06 02:03:50;;;;;;;;;9.00;9.00;;;;;29.87;33.32;100828.03;5041324;28;45396;-72
2023/07/06 02:06:17;;;;;;;;;8.00;8.00;;;;;29.91;32.75;100833.09;5042757;28;45191;-76
2023/07/06 02:08:42;;;;;;;;;10.00;10.00;;;;;29.80;33.02;100827.06;5048565;28;45349;-75
2023/07/06 02:11:13;;;;;;;;;9.50;9.50;;;;;29.91;32.95;100827.66;5042621;28;45626;-71
2023/07/06 02:13:38;;;;;;;;;9.00;9.00;;;;;29.89;32.87;100827.81;5040331;28;46396;-68
2023/07/06 02:16:05;;;;;;;;;8.75;8.75;;;;;29.90;33.17;100826.81;5040494;28;45458;-77
2023/07/06 02:18:31;;;;;;;;;11.75;11.00;;;;;29.91;32.74;100827.66;5043466;28;45296;-72
2023/07/06 02:20:57;;;;;;;;;8.50;8.50;;;;;29.90;33.13;100823.25;5041515;28;45580;-74
2023/07/06 02:23:23;;;;;;;;;7.25;7.25;;;;;29.98;33.27;100818.59;5022587;28;46880;-70
2023/07/06 02:25:49;;;;;;;;;6.00;6.00;;;;;30.02;33.08;100821.81;5042646;28;45384;-73
2023/07/06 02:28:15;;;;;;;;;8.75;8.75;;;;;29.99;32.73;100816.72;5040169;28;45398;-70
2023/07/06 02:30:40;;;;;;;;;8.75;8.50;;;;;30.07;32.86;100811.25;5039776;28;45619;-71
2023/07/06 02:33:06;;;;;;;;;9.75;9.75;;;;;30.03;32.81;100810.78;5039553;28;46282;-75
2023/07/06 02:35:32;;;;;;;;;9.50;9.50;;;;;29.97;32.53;100818.78;5021522;28;45387;-73
2023/07/06 02:37:58;;;;;;;;;7.00;7.00;;;;;29.82;32.70;100802.47;5040107;28;45317;-75
2023/07/06 02:40:23;;;;;;;;;9.00;9.00;;;;;29.81;33.18;100807.06;5044009;28;45337;-75
2023/07/06 02:42:49;;;;;;;;;14.00;14.00;;;;;29.85;33.51;100812.94;5045084;28;46442;-76
2023/07/06 02:45:14;;;;;;;;;10.00;10.00;;;;;29.83;32.91;100807.72;5023661;28;45312;-76
2023/07/06 02:47:41;;;;;;;;;10.00;10.00;;;;;29.90;32.94;100813.25;5043856;28;45392;-71
2023/07/06 02:50:11;;;;;;;;;9.50;8.25;;;;;29.86;33.04;100817.34;5040345;28;45573;-73
2023/07/06 02:52:37;;;;;;;;;10.00;10.00;;;;;29.72;32.88;100816.31;5039337;28;45502;-68
2023/07/06 02:55:03;;;;;;;;;9.75;9.75;;;;;29.82;33.11;100826.88;5038987;28;45407;-73
2023/07/06 02:57:28;;;;;;;;;8.50;8.50;;;;;29.74;32.88;100830.53;5040022;28;45351;-69
2023/07/06 02:59:56;;;;;;;;;10.00;10.00;;;;;29.73;33.60;100842.38;5043014;28;45352;-72
2023/07/06 03:02:21;;;;;;;;;8.25;8.25;;;;;29.75;33.58;100837.63;5042329;28;46160;-69
2023/07/06 03:04:47;;;;;;;;;10.00;10.00;;;;;29.74;33.45;100839.47;5040222;28;45228;-75
2023/07/06 03:07:14;;;;;;;;;11.00;11.00;;;;;29.70;33.36;100835.44;5041563;28;45454;-74
2023/07/06 03:09:39;;;;;;;;;8.75;8.75;;;;;29.67;33.29;100834.94;5041193;28;45307;-66
2023/07/06 03:12:05;;;;;;;;;10.25;9.50;;;;;29.70;33.69;100831.91;5021313;28;47431;-71
2023/07/06 03:14:32;;;;;;;;;9.00;9.00;;;;;29.74;33.36;100835.94;5038925;28;45368;-70
2023/07/06 03:16:58;;;;;;;;;7.25;7.25;;;;;29.78;33.21;100834.53;5038848;28;45368;-77
2023/07/06 03:19:23;;;;;;;;;7.50;7.50;;;;;29.78;32.98;100839.97;5039115;28;45296;-73
2023/07/06 03:21:49;;;;;;;;;8.25;8.25;;;;;29.68;33.25;100828.50;5038400;28;57397;-71
2023/07/06 03:24:15;;;;;;;;;8.25;8.25;;;;;29.77;33.34;100832.88;5020237;28;45197;-75
2023/07/06 03:26:41;;;;;;;;;9.75;9.75;;;;;29.71;33.20;100833.59;5039627;28;45415;-77
2023/07/06 03:29:09;;;;;;;;;7.75;7.75;;;;;29.70;33.36;100821.91;5039070;28;45524;-77
2023/07/06 03:31:35;;;;;;;;;9.75;9.75;;;;;29.79;32.99;100836.22;5039669;28;45296;-77
2023/07/06 03:34:02;;;;;;;;;9.50;8.00;;;;;29.72;33.29;100832.56;5042770;28;44808;-68
2023/07/06 03:36:28;;;;;;;;;14.25;14.25;;;;;29.61;33.62;100823.00;5039972;28;45440;-66
2023/07/06 03:38:53;;;;;;;;;11.00;11.00;;;;;29.66;33.13;100826.00;5037835;28;45512;-66
2023/07/06 03:41:19;;;;;;;;;10.50;10.50;;;;;29.77;33.43;100840.13;5037637;28;55593;-68
2023/07/06 03:43:45;;;;;;;;;7.75;7.75;;;;;29.78;33.33;100836.41;5049369;28;45347;-75
2023/07/06 03:46:12;;;;;;;;;6.75;6.75;;;;;29.72;33.57;100846.13;5046627;28;45309;-68
2023/07/06 03:48:40;;;;;;;;;9.00;9.00;;;;;29.61;33.68;100831.13;5042344;28;45597;-76
2023/07/06 03:51:07;;;;;;;;;9.25;9.25;;;;;29.77;33.01;100845.56;5038693;28;45177;-66
2023/07/06 03:53:35;;;;;;;;;7.00;7.00;;;;;29.70;33.41;100840.88;5038296;28;45372;-70
2023/07/06 03:56:05;;;;;;;;;8.00;8.00;;;;;29.71;33.68;100845.25;5039329;28;45274;-76
2023/07/06 03:58:31;;;;;;;;;10.25;10.25;;;;;29.68;33.35;100837.50;5039778;28;45415;-77
2023/07/06 04:00:58;;;;;;;;;10.00;10.00;;;;;29.66;33.82;100827.84;5040561;28;45451;-71
2023/07/06 04:03:31;;;;;;;;;12.00;12.00;;;;;29.66;33.47;100830.56;5022825;28;45268;-75
2023/07/06 04:05:56;;;;;;;;;12.50;12.50;;;;;29.73;33.92;100845.94;5045740;28;45701;-74
2023/07/06 04:08:22;;;;;;;;;10.50;10.50;;;;;29.75;33.43;100845.75;5028126;28;45609;-73
2023/07/06 04:10:49;;;;;;;;;11.75;11.25;;;;;29.73;33.59;100845.09;5040891;28;46175;-76
2023/07/06 04:13:15;;;;;;;;;12.25;12.00;;;;;29.78;33.44;100850.81;5019979;28;45434;-77
2023/07/06 04:15:47;;;;;;;;;11.50;11.50;;;;;29.81;33.53;100847.75;5042760;28;45758;-67
2023/07/06 04:18:15;;;;;;;;;12.50;12.50;;;;;29.79;33.15;100838.09;5058320;28;45375;-72
2023/07/06 04:20:41;;;;;;;;;10.25;10.25;;;;;29.82;33.62;100849.44;5057249;28;46353;-70
2023/07/06 04:23:09;;;;;;;;;12.75;12.75;;;;;29.81;33.67;100836.91;5040633;28;45520;-74
2023/07/06 04:25:35;;;;;;;;;11.50;11.50;;;;;29.77;33.68;100842.84;5043857;28;45418;-76
2023/07/06 04:28:05;;;;;;;;;12.75;12.75;;;;;29.91;33.42;100847.47;5039849;28;45396;-73
2023/07/06 04:30:32;;;;;;;;;12.00;12.00;;;;;29.64;33.77;100819.06;5037589;28;46290;-67
2023/07/06 04:32:58;;;;;;;;;10.75;10.75;;;;;29.83;33.56;100845.69;5040830;28;45347;-67
2023/07/06 04:35:23;;;;;;;;;13.75;13.75;;;;;29.85;33.36;100842.78;5040358;28;45412;-76
2023/07/06 04:37:50;;;;;;;;;16.25;15.00;;;;;29.98;33.27;100847.59;5040068;28;45582;-77
2023/07/06 04:40:20;;;;;;;;;15.25;14.75;;;;;30.02;33.66;100844.34;5040242;28;45404;-77
2023/07/06 04:42:48;;;;;;;;;13.75;13.75;;;;;30.08;33.23;100844.63;5041335;28;45285;-75
2023/07/06 04:45:15;;;;;;;;;17.50;15.25;;;;;30.00;33.16;100842.84;5038956;28;45368;-74
2023/07/06 04:47:42;;;;;;;;;19.50;19.50;;;;;30.10;33.08;100848.84;5040298;28;44767;-74
2023/07/06 04:50:09;;;;;;;;;7.25;7.25;;;;;30.19;32.62;100848.78;5039357;28;45394;-73
2023/07/06 04:52:38;;;;;;;;;12.00;12.00;;;;;30.20;33.31;100859.41;5019687;28;46065;-70
2023/07/06 04:55:05;;;;;;;;;13.75;13.25;;;;;30.16;32.76;100849.97;5037606;28;45336;-68
2023/07/06 04:57:30;;;;;;;;;24.25;24.25;;;;;30.10;33.20;100842.56;5038682;28;45344;-65
2023/07/06 04:59:56;;;;;;;;;11.25;11.25;;;;;30.35;32.74;100861.34;5037313;28;46421;-66
2023/07/06 05:02:22;;;;;;;;;19.25;17.00;;;;;30.57;33.12;100857.69;5020661;28;45375;-73
2023/07/06 05:04:49;;;;;;;;;14.25;14.25;;;;;30.82;32.42;100853.88;5022067;28;45463;-74
2023/07/06 05:07:14;;;;;;;;;13.50;13.50;;;;;30.94;32.43;100844.22;5040455;28;45530;-72
2023/07/06 05:09:43;;;;;;;;;12.75;12.75;;;;;31.22;32.15;100862.53;5022794;28;45221;-71
2023/07/06 05:12:10;;;;;;;;;13.00;13.00;;;;;31.46;31.87;100863.19;5023926;28;45252;-74
2023/07/06 05:14:35;;;;;;;;;13.25;13.25;;;;;31.42;31.82;100841.00;5043035;28;45403;-69
2023/07/06 05:17:01;;;;;;;;;12.25;12.25;;;;;31.67;31.53;100867.78;5044303;28;45460;-72
2023/07/06 05:19:27;;;;;;;;;17.00;17.00;;;;;31.79;31.04;100868.13;5043263;28;46537;-79
2023/07/06 05:21:55;;;;;;;;;18.75;18.75;;;;;31.93;31.65;100851.94;5042144;28;45472;-77
2023/07/06 05:24:24;;;;;;;;;14.00;14.00;;;;;31.96;31.02;100860.53;5051707;28;45271;-72
2023/07/06 05:26:49;;;;;;;;;14.00;14.00;;;;;31.94;31.10;100857.19;5047990;28;46077;-73
2023/07/06 05:29:15;;;;;;;;;9.00;9.00;;;;;32.12;30.88;100864.84;5045221;28;46740;-79
2023/07/06 05:31:41;;;;;;;;;11.50;11.50;;;;;32.15;30.89;100863.59;5044481;28;45303;-75
2023/07/06 05:34:08;;;;;;;;;9.25;9.25;;;;;32.17;31.16;100870.53;5043262;28;45421;-72
2023/07/06 05:36:36;;;;;;;;;8.00;8.00;;;;;32.15;29.88;100866.31;5043548;28;45323;-77
2023/07/06 05:39:03;;;;;;;;;9.00;9.00;;;;;32.10;30.11;100861.50;5044839;28;46255;-71
2023/07/06 05:41:28;;;;;;;;;9.00;9.00;;;;;32.15;30.12;100858.16;5051861;28;45402;-70
2023/07/06 05:43:53;;;;;;;;;10.00;10.00;;;;;32.32;30.51;100866.91;5048489;28;45471;-72
2023/07/06 05:46:19;;;;;;;;;8.25;8.25;;;;;32.34;29.87;100859.38;5042966;28;45431;-71
2023/07/06 05:48:44;;;;;;;;;10.75;10.75;;;;;32.39;30.24;100859.63;5023679;28;45875;-75
2023/07/06 05:51:09;;;;;;;;;11.50;11.50;;;;;32.46;30.34;100867.84;5041353;28;45392;-74
2023/07/06 05:53:35;;;;;;;;;9.50;9.50;;;;;32.44;29.90;100865.31;5041590;28;45294;-70
2023/07/06 05:56:00;;;;;;;;;5.00;5.00;;;;;32.37;29.87;100863.59;5040207;28;51814;-71
2023/07/06 05:58:26;;;;;;;;;8.00;8.00;;;;;32.36;29.75;100860.03;5041076;28;45707;-73
2023/07/06 06:00:52;;;;;;;;;7.50;7.50;;;;;32.31;30.31;100827.13;5041537;28;45903;-69
2023/07/06 06:03:18;;;;;;;;;6.75;6.75;;;;;32.61;29.58;100870.41;5027265;28;45530;-73
2023/07/06 06:05:43;;;;;;;;;7.00;7.00;;;;;32.66;30.20;100870.66;5043959;28;45300;-74
2023/07/06 06:08:09;;;;;;;;;7.00;7.00;;;;;32.60;29.90;100871.47;5022641;28;47284;-67
2023/07/06 06:10:34;;;;;;;;;7.50;7.50;;;;;32.41;29.59;100871.16;5040830;28;45328;-69
2023/07/06 06:12:59;;;;;;;;;9.75;9.75;;;;;32.32;29.86;100866.91;5041796;28;45327;-66
2023/07/06 06:15:27;;;;;;;;;9.00;9.00;;;;;32.24;29.86;100873.28;5040023;28;45273;-73
2023/07/06 06:17:52;;;;;;;;;22.25;21.50;;;;;32.19;29.53;100875.78;5040554;28;45435;-69
2023/07/06 06:20:19;;;;;;;;;9.00;9.00;;;;;32.22;30.07;100896.31;5039706;28;45371;-68
2023/07/06 06:22:44;;;;;;;;;10.00;10.00;;;;;32.19;29.69;100892.09;5039804;28;45370;-69
2023/07/06 06:25:10;;;;;;;;;9.25;9.25;;;;;32.05;29.45;100885.72;5041266;28;45393;-75
2023/07/06 06:27:35;;;;;;;;;9.00;9.00;;;;;32.02;29.66;100878.78;5021321;28;47104;-73
2023/07/06 06:30:00;;;;;;;;;6.75;6.75;;;;;32.03;29.18;100882.38;5022433;28;45908;-67
2023/07/06 06:32:26;;;;;;;;;9.75;9.75;;;;;32.19;29.15;100892.97;5039613;28;45400;-68
2023/07/06 06:34:54;;;;;;;;;5.50;5.50;;;;;32.12;29.41;100892.06;5042255;28;45449;-73
2023/07/06 06:37:20;;;;;;;;;7.50;7.50;;;;;32.11;29.13;100897.69;5040996;28;47065;-73
2023/07/06 06:39:46;;;;;;;;;7.00;7.00;;;;;32.08;29.25;100896.22;5039573;28;45379;-76
2023/07/06 06:42:13;;;;;;;;;5.75;5.75;;;;;32.03;29.65;100893.25;5039781;28;45794;-76
2023/07/06 06:44:38;;;;;;;;;5.25;5.25;;;;;32.03;29.68;100885.09;5040652;28;45362;-72
2023/07/06 06:47:04;;;;;;;;;6.25;6.25;;;;;32.15;29.38;100899.84;5041729;28;45428;-77
2023/07/06 06:49:31;;;;;;;;;6.00;6.00;;;;;32.16;29.69;100904.25;5042861;28;45436;-72
2023/07/06 06:51:56;;;;;;;;;6.00;6.00;;;;;32.02;29.07;100905.16;5038799;28;45338;-68
2023/07/06 06:54:22;;;;;;;;;7.75;7.75;;;;;31.94;29.41;100902.59;5038601;28;45312;-77
2023/07/06 06:56:47;;;;;;;;;19.00;19.00;;;;;31.99;30.38;100905.56;5021387;28;47164;-74
2023/07/06 06:59:15;;;;;;;;;4.50;4.50;;;;;32.15;29.59;100908.00;5042550;28;45365;-79
2023/07/06 07:01:40;;;;;;;;;8.00;8.00;;;;;31.98;29.43;100898.44;5048266;28;45383;-79
2023/07/06 07:04:09;;;;;;;;;8.50;8.50;;;;;31.97;30.17;100907.63;5045002;28;45532;-72
2023/07/06 07:06:35;;;;;;;;;8.00;8.00;;;;;32.05;29.76;100913.75;5039422;28;45435;-76
2023/07/06 07:09:02;;;;;;;;;7.25;7.25;;;;;32.10;29.83;100920.50;5020961;28;45434;-71
2023/07/06 07:11:28;;;;;;;;;6.00;6.00;;;;;32.22;29.11;100915.38;5040030;28;45481;-73
2023/07/06 07:13:54;;;;;;;;;6.75;6.75;;;;;32.37;29.67;100916.13;5041862;28;45256;-75
2023/07/06 07:16:20;;;;;;;;;7.75;7.75;;;;;32.40;29.13;100914.91;5039629;28;45363;-73
2023/07/06 07:18:46;;;;;;;;;6.75;6.75;;;;;32.16;28.95;100882.47;5020485;28;45495;-80
2023/07/06 07:21:13;;;;;;;;;4.00;4.00;;;;;32.39;29.35;100914.06;5040378;28;45818;-67
2023/07/06 07:23:44;;;;;;;;;6.50;6.50;;;;;32.56;29.13;100914.59;5041348;28;45354;-71
2023/07/06 07:26:12;;;;;;;;;6.50;6.50;;;;;32.66;29.35;100907.94;5037947;28;45354;-71
2023/07/06 07:28:38;;;;;;;;;6.75;6.75;;;;;32.66;29.17;100897.88;5019533;28;45378;-68
2023/07/06 07:31:07;;;;;;;;;6.00;6.00;;;;;32.85;28.90;100909.09;5037599;28;45469;-76
2023/07/06 07:33:32;;;;;;;;;6.00;6.00;;;;;33.02;28.39;100912.34;5038218;28;45351;-69
2023/07/06 07:36:00;;;;;;;;;4.75;4.75;;;;;33.14;28.65;100899.00;5037442;28;46036;-72
2023/07/06 07:38:26;;;;;;;;;5.50;5.50;;;;;33.16;28.65;100907.81;5040260;28;45317;-76
2023/07/06 07:40:56;;;;;;;;;10.50;10.50;;;;;33.31;28.14;100907.63;5042719;28;45276;-72
2023/07/06 07:43:29;;;;;;;;;8.50;8.50;;;;;33.52;28.08;100909.41;5043475;28;45407;-76
2023/07/06 07:45:58;;;;;;;;;7.50;7.50;;;;;33.71;28.37;100906.91;5044424;28;45352;-77
2023/07/06 07:48:26;;;;;;;;;16.75;14.75;;;;;33.87;28.19;100901.03;5038751;28;45427;-69
2023/07/06 07:50:56;;;;;;;;;7.75;7.75;;;;;33.98;28.19;100909.72;5037970;28;45254;-76
2023/07/06 07:53:24;;;;;;;;;9.75;9.75;;;;;34.02;27.85;100894.59;5038074;28;45390;-76
2023/07/06 07:55:50;;;;;;;;;8.00;8.00;;;;;34.19;27.51;100906.75;5037436;28;45948;-76
2023/07/06 07:58:15;;;;;;;;;9.00;9.00;;;;;34.30;27.48;100910.72;5038774;28;45217;-72
2023/07/06 08:00:47;;;;;;;;;7.00;7.00;;;;;34.49;26.92;100903.59;5039177;28;45301;-77
2023/07/06 08:03:12;;;;;;;;;9.00;9.00;;;;;34.42;27.03;100888.22;5038699;28;45357;-76
2023/07/06 08:05:39;;;;;;;;;7.50;7.50;;;;;34.55;27.20;100893.72;5040642;28;45316;-71
2023/07/06 08:08:05;;;;;;;;;9.50;9.50;;;;;34.79;27.17;100905.00;5037591;28;45289;-69
2023/07/06 08:10:34;;;;;;;;;9.25;9.25;;;;;35.07;27.04;100898.38;5018729;28;45480;-69
2023/07/06 08:12:59;;;;;;;;;6.00;6.00;;;;;35.09;26.57;100899.88;5036524;28;45646;-68
2023/07/06 08:15:25;;;;;;;;;7.50;7.50;;;;;35.12;25.80;100884.09;5036603;28;45333;-71
2023/07/06 08:17:50;;;;;;;;;8.25;8.25;;;;;35.28;25.99;100889.03;5037076;28;45320;-72
2023/07/06 08:20:17;;;;;;;;;31.50;28.75;;;;;35.46;26.48;100896.47;5038716;28;45338;-69
2023/07/06 08:22:43;;;;;;;;;7.00;7.00;;;;;35.58;26.17;100890.38;5038155;28;45332;-70
2023/07/06 08:25:08;;;;;;;;;14.25;14.25;;;;;35.78;26.25;100892.94;5036679;28;46064;-74
2023/07/06 08:27:34;;;;;;;;;7.50;7.00;;;;;35.93;26.05;100893.44;5038335;28;45430;-75
2023/07/06 08:29:59;;;;;;;;;10.00;10.00;;;;;36.04;26.12;100893.78;5037646;28;45337;-69
2023/07/06 08:32:25;;;;;;;;;11.75;11.75;;;;;36.14;25.70;100885.09;5036437;28;45280;-73
2023/07/06 08:34:51;;;;;;;;;9.50;9.50;;;;;36.18;25.74;100881.69;5018005;28;47455;-68
2023/07/06 08:37:20;;;;;;;;;5.50;5.25;;;;;36.38;25.58;100883.38;5036494;28;45295;-67
2023/07/06 08:39:46;;;;;;;;;5.25;5.25;;;;;36.41;25.61;100885.66;5041006;28;45431;-67
2023/07/06 08:42:15;;;;;;;;;6.50;6.50;;;;;36.52;25.20;100889.56;5038683;28;45458;-74
2023/07/06 08:44:50;;;;;;;;;7.75;7.75;;;;;36.57;25.13;100886.16;5040379;28;45994;-68
2023/07/06 08:47:16;;;;;;;;;6.50;6.50;;;;;36.68;25.30;100880.75;5041780;28;45222;-66
2023/07/06 08:49:43;;;;;;;;;5.00;5.00;;;;;36.58;24.97;100883.16;5039600;28;45291;-68
2023/07/06 08:52:12;;;;;;;;;7.75;7.75;;;;;36.70;25.03;100886.00;5039610;28;45336;-68
2023/07/06 08:54:39;;;;;;;;;7.50;5.75;;;;;36.71;25.14;100889.59;5019867;28;46645;-77
2023/07/06 08:57:26;;;;;;;;;5.00;5.00;;;;;36.91;24.62;100892.91;5037967;28;45332;-70
2023/07/06 08:59:52;;;;;;;;;4.00;4.00;;;;;37.05;24.80;100888.09;5021432;28;45350;-72
2023/07/06 09:02:22;;;;;;;;;4.50;4.50;;;;;37.16;23.93;100871.97;5036913;28;45185;-75
2023/07/06 09:04:50;;;;;;;;;5.00;5.00;;;;;37.35;23.53;100892.78;5019671;28;45447;-75
2023/07/06 09:07:17;;;;;;;;;4.75;4.75;;;;;37.36;23.73;100886.22;5019712;28;45345;-77
2023/07/06 09:09:44;;;;;;;;;6.00;6.00;;;;;37.39;24.18;100893.13;5036290;28;45240;-77
2023/07/06 09:12:24;;;;;;;;;4.00;4.00;;;;;37.54;23.93;100887.25;5036840;28;45226;-72
2023/07/06 09:14:51;;;;;;;;;4.25;4.25;;;;;37.66;23.88;100890.03;5036512;28;47326;-65
2023/07/06 09:17:17;;;;;;;;;3.75;3.75;;;;;37.75;23.61;100891.34;5017968;28;45326;-73
2023/07/06 09:19:44;;;;;;;;;7.25;7.25;;;;;37.73;23.31;100890.75;5035490;28;45430;-68
2023/07/06 09:22:10;;;;;;;;;3.00;3.00;;;;;37.75;23.28;100874.88;5035332;28;45422;-72
2023/07/06 09:24:36;;;;;;;;;10.50;10.50;;;;;38.03;23.17;100878.03;5036121;28;45426;-73
2023/07/06 09:27:22;;;;;;;;;6.25;6.25;;;;;38.16;22.86;100874.22;5037717;28;45363;-77
2023/07/06 09:30:02;;;;;;;;;8.25;8.25;;;;;38.32;23.32;100892.72;5036548;28;45340;-69
2023/07/06 09:32:32;;;;;;;;;12.25;12.25;;;;;38.38;22.63;100891.75;5019122;28;45402;-72
2023/07/06 09:35:08;;;;;;;;;7.00;7.00;;;;;38.63;22.52;100900.81;5036804;28;46495;-73
2023/07/06 09:37:44;;;;;;;;;5.00;5.00;;;;;38.74;22.27;100891.72;5037294;28;45309;-71
2023/07/06 09:40:10;;;;;;;;;8.75;8.75;;;;;38.77;22.55;100890.41;5036941;28;45348;-72
2023/07/06 09:42:36;;;;;;;;;5.25;4.00;;;;;38.82;21.84;100891.31;5019319;28;45321;-73
2023/07/06 09:45:04;;;;;;;;;5.75;5.75;;;;;38.84;22.33;100891.91;5036952;28;46405;-70
2023/07/06 09:47:33;;;;;;;;;7.75;7.75;;;;;38.73;22.25;100890.03;5018576;28;45419;-72
2023/07/06 09:50:14;;;;;;;;;9.50;9.50;;;;;38.22;21.77;100874.09;5037048;28;45330;-71
2023/07/06 09:52:40;;;;;;;;;6.25;6.25;;;;;38.01;22.07;100875.53;5024326;28;45524;-72
2023/07/06 09:55:25;;;;;;;;;14.75;14.75;;;;;38.24;22.82;100879.34;5043305;28;46146;-75
2023/07/06 09:57:51;;;;;;;;;10.50;10.25;;;;;38.70;22.57;100885.03;5041537;28;45379;-72
2023/07/06 10:00:22;;;;;;;;;6.00;6.00;;;;;39.11;22.17;100882.28;5039378;28;45395;-78
2023/07/06 10:03:16;;;;;;;;;7.25;7.25;;;;;39.37;22.16;100883.63;5026146;28;45478;-69
2023/07/06 10:05:45;;;;;;;;;6.00;6.00;;;;;39.47;22.25;100874.72;5050888;28;46553;-70
2023/07/06 10:08:21;;;;;;;;;8.00;8.00;;;;;39.40;21.29;100888.66;5044801;28;45297;-77
2023/07/06 10:11:01;;;;;;;;;6.25;6.25;;;;;39.02;22.04;100873.59;5023239;28;45404;-73
2023/07/06 10:13:26;;;;;;;;;6.00;6.00;;;;;38.90;21.74;100870.91;5023291;28;45378;-76
2023/07/06 10:15:58;;;;;;;;;6.25;6.25;;;;;39.23;21.88;100880.31;5043252;28;45417;-70
2023/07/06 10:18:29;;;;;;;;;8.25;8.25;;;;;39.63;21.93;100877.72;5046312;28;45317;-70
2023/07/06 10:21:14;;;;;;;;;7.75;7.75;;;;;39.82;21.08;100881.94;5046920;28;45396;-72
2023/07/06 10:23:57;;;;;;;;;4.50;4.50;;;;;40.15;20.92;100879.38;5039887;28;45510;-70
2023/07/06 10:26:29;;;;;;;;;6.50;6.50;;;;;40.46;20.73;100866.91;5021432;28;48278;-75
2023/07/06 10:29:01;;;;;;;;;8.50;8.50;;;;;40.84;20.19;100861.59;5039347;28;45245;-80
2023/07/06 10:31:33;;;;;;;;;6.00;6.00;;;;;41.24;20.35;100865.06;5039151;28;45269;-76
2023/07/06 10:34:19;;;;;;;;;11.00;11.00;;;;;41.51;19.54;100860.63;5041831;28;45510;-69
2023/07/06 10:36:47;;;;;;;;;11.00;10.00;;;;;41.74;19.40;100868.56;5042589;28;46375;-72
2023/07/06 10:39:33;;;;;;;;;8.00;8.00;;;;;42.11;19.46;100874.34;5040340;28;45435;-73
2023/07/06 10:42:05;;;;;;;;;5.00;5.00;;;;;41.88;19.42;100868.91;5040655;28;45443;-75
2023/07/06 10:44:46;;;;;;;;;7.50;7.50;;;;;41.62;19.40;100873.44;5039212;28;45720;-76
2023/07/06 10:47:33;;;;;;;;;15.50;15.50;;;;;41.25;19.32;100863.13;5038582;28;45357;-72
2023/07/06 10:50:07;;;;;;;;;5.50;5.50;;;;;41.12;19.34;100867.94;5022006;28;45386;-71
2023/07/06 10:52:38;;;;;;;;;5.25;5.25;;;;;40.79;19.23;100875.31;5038614;28;45736;-74
2023/07/06 10:55:24;;;;;;;;;5.50;5.50;;;;;40.16;19.22;100870.03;5038829;28;45248;-73
2023/07/06 10:57:51;;;;;;;;;6.25;6.25;;;;;39.80;19.92;100869.50;5036526;28;48140;-74
2023/07/06 11:00:19;;;;;;;;;4.75;4.75;;;;;39.73;19.71;100859.47;5038303;28;45178;-79
2023/07/06 11:02:46;;;;;;;;;2.75;2.75;;;;;39.80;19.38;100864.00;5038121;28;45751;-70
2023/07/06 11:05:25;;;;;;;;;4.50;4.50;;;;;39.87;19.54;100860.00;5020234;28;45358;-74
2023/07/06 11:07:52;;;;;;;;;4.25;4.25;;;;;39.99;19.61;100862.63;5022436;28;47594;-77
2023/07/06 11:10:22;;;;;;;;;7.00;7.00;;;;;40.16;19.56;100864.53;5039656;28;45400;-74
2023/07/06 11:12:57;;;;;;;;;5.00;5.00;;;;;40.50;19.98;100858.97;5040377;28;45422;-70
2023/07/06 11:15:35;;;;;;;;;7.25;7.25;;;;;40.89;19.06;100852.56;5039443;28;45418;-74
2023/07/06 11:18:14;;;;;;;;;6.50;6.50;;;;;41.06;19.10;100852.44;5020760;28;47208;-76
2023/07/06 11:20:43;;;;;;;;;4.75;4.75;;;;;41.36;18.85;100853.88;5039367;28;45461;-70
2023/07/06 11:23:21;;;;;;;;;3.25;3.25;;;;;41.47;17.60;100846.50;5039113;28;45317;-75
2023/07/06 11:25:50;;;;;;;;;4.25;4.25;;;;;41.30;18.12;100849.38;5038561;28;45198;-75
2023/07/06 11:28:24;;;;;;;;;3.00;3.00;;;;;41.15;18.47;100848.16;5021331;28;48493;-74